sensor_id;sensor_type;location;lat;lon;timestamp;P1;durP1;ratioP1;P2;durP2;ratioP2
40052;SDS011;25758;48.200;16.338;2023-08-21T00:02:19;7.78;;;5.32;;
40052;SDS011;25758;48.200;16.338;2023-08-21T00:04:44;7.30;;;5.50;;
40052;SDS011;25758;48.200;16.338;2023-08-21T00:07:10;6.70;;;5.68;;
40052;SDS011;25758;48.200;16.338;2023-08-21T00:09:36;10.50;;;5.18;;
40052;SDS011;25758;48.200;16.338;2023-08-21T00:12:02;5.68;;;5.18;;
40052;SDS011;25758;48.200;16.338;2023-08-21T00:14:28;6.40;;;5.20;;
40052;SDS011;25758;48.200;16.338;2023-08-21T00:16:54;6.45;;;5.50;;
40052;SDS011;25758;48.200;16.338;2023-08-21T00:19:20;11.60;;;5.32;;
40052;SDS011;25758;48.200;16.338;2023-08-21T00:21:45;6.07;;;5.47;;
40052;SDS011;25758;48.200;16.338;2023-08-21T00:24:11;10.73;;;5.70;;
40052;SDS011;25758;48.200;16.338;2023-08-21T00:26:36;7.15;;;5.45;;
40052;SDS011;25758;48.200;16.338;2023-08-21T00:29:02;12.10;;;6.00;;
40052;SDS011;25758;48.200;16.338;2023-08-21T00:31:28;8.88;;;5.72;;
40052;SDS011;25758;48.200;16.338;2023-08-21T00:33:53;7.63;;;5.82;;
40052;SDS011;25758;48.200;16.338;2023-08-21T00:36:19;5.97;;;5.40;;
40052;SDS011;25758;48.200;16.338;2023-08-21T00:38:45;6.43;;;5.82;;
40052;SDS011;25758;48.200;16.338;2023-08-21T00:41:11;6.95;;;5.68;;
40052;SDS011;25758;48.200;16.338;2023-08-21T00:43:37;5.90;;;5.25;;
40052;SDS011;25758;48.200;16.338;2023-08-21T00:46:02;8.55;;;5.40;;
40052;SDS011;25758;48.200;16.338;2023-08-21T00:48:28;7.43;;;5.55;;
40052;SDS011;25758;48.200;16.338;2023-08-21T00:50:54;6.95;;;5.68;;
40052;SDS011;25758;48.200;16.338;2023-08-21T00:53:20;11.25;;;5.35;;
40052;SDS011;25758;48.200;16.338;2023-08-21T00:55:47;6.82;;;5.65;;
40052;SDS011;25758;48.200;16.338;2023-08-21T00:58:12;7.63;;;5.53;;
40052;SDS011;25758;48.200;16.338;2023-08-21T01:00:39;6.05;;;5.45;;
40052;SDS011;25758;48.200;16.338;2023-08-21T01:03:06;7.75;;;5.88;;
40052;SDS011;25758;48.200;16.338;2023-08-21T01:05:32;6.53;;;5.15;;
40052;SDS011;25758;48.200;16.338;2023-08-21T01:08:01;7.50;;;5.43;;
40052;SDS011;25758;48.200;16.338;2023-08-21T01:11:06;6.95;;;6.13;;
40052;SDS011;25758;48.200;16.338;2023-08-21T01:16:28;6.43;;;5.82;;
40052;SDS011;25758;48.200;16.338;2023-08-21T01:18:55;6.97;;;6.10;;
40052;SDS011;25758;48.200;16.338;2023-08-21T01:21:24;7.20;;;6.45;;
40052;SDS011;25758;48.200;16.338;2023-08-21T01:23:50;7.13;;;5.80;;
40052;SDS011;25758;48.200;16.338;2023-08-21T01:26:16;5.80;;;5.25;;
40052;SDS011;25758;48.200;16.338;2023-08-21T01:28:41;6.25;;;5.38;;
40052;SDS011;25758;48.200;16.338;2023-08-21T01:33:45;6.45;;;5.75;;
40052;SDS011;25758;48.200;16.338;2023-08-21T01:36:15;7.47;;;5.55;;
40052;SDS011;25758;48.200;16.338;2023-08-21T01:38:40;6.53;;;5.93;;
40052;SDS011;25758;48.200;16.338;2023-08-21T01:41:07;6.30;;;5.68;;
40052;SDS011;25758;48.200;16.338;2023-08-21T01:43:32;10.02;;;5.78;;
40052;SDS011;25758;48.200;16.338;2023-08-21T01:45:58;7.57;;;6.20;;
40052;SDS011;25758;48.200;16.338;2023-08-21T01:48:25;7.95;;;5.88;;
40052;SDS011;25758;48.200;16.338;2023-08-21T01:50:50;8.48;;;5.72;;
40052;SDS011;25758;48.200;16.338;2023-08-21T01:53:16;7.38;;;6.00;;
40052;SDS011;25758;48.200;16.338;2023-08-21T01:55:41;7.13;;;6.30;;
40052;SDS011;25758;48.200;16.338;2023-08-21T01:58:07;9.02;;;6.22;;
40052;SDS011;25758;48.200;16.338;2023-08-21T02:00:33;6.40;;;5.80;;
40052;SDS011;25758;48.200;16.338;2023-08-21T02:02:58;8.43;;;5.47;;
40052;SDS011;25758;48.200;16.338;2023-08-21T02:05:24;6.55;;;5.95;;
40052;SDS011;25758;48.200;16.338;2023-08-21T02:07:49;7.38;;;5.82;;
40052;SDS011;25758;48.200;16.338;2023-08-21T02:10:15;7.53;;;6.25;;
40052;SDS011;25758;48.200;16.338;2023-08-21T02:12:40;6.20;;;5.60;;
40052;SDS011;25758;48.200;16.338;2023-08-21T02:15:06;10.40;;;5.90;;
40052;SDS011;25758;48.200;16.338;2023-08-21T02:17:32;6.82;;;6.22;;
40052;SDS011;25758;48.200;16.338;2023-08-21T02:19:58;6.28;;;5.55;;
40052;SDS011;25758;48.200;16.338;2023-08-21T02:22:23;9.50;;;6.20;;
40052;SDS011;25758;48.200;16.338;2023-08-21T02:24:49;9.80;;;7.10;;
40052;SDS011;25758;48.200;16.338;2023-08-21T02:27:14;8.48;;;6.68;;
40052;SDS011;25758;48.200;16.338;2023-08-21T02:29:40;8.02;;;6.07;;
40052;SDS011;25758;48.200;16.338;2023-08-21T02:32:06;7.18;;;5.97;;
40052;SDS011;25758;48.200;16.338;2023-08-21T02:34:32;9.25;;;6.25;;
40052;SDS011;25758;48.200;16.338;2023-08-21T02:36:57;8.00;;;6.13;;
40052;SDS011;25758;48.200;16.338;2023-08-21T02:39:23;11.25;;;6.47;;
40052;SDS011;25758;48.200;16.338;2023-08-21T02:41:49;8.65;;;6.25;;
40052;SDS011;25758;48.200;16.338;2023-08-21T02:44:14;9.25;;;6.53;;
40052;SDS011;25758;48.200;16.338;2023-08-21T02:46:40;7.88;;;6.10;;
40052;SDS011;25758;48.200;16.338;2023-08-21T02:49:06;7.13;;;6.43;;
40052;SDS011;25758;48.200;16.338;2023-08-21T02:51:31;7.63;;;6.38;;
40052;SDS011;25758;48.200;16.338;2023-08-21T02:53:57;7.03;;;6.32;;
40052;SDS011;25758;48.200;16.338;2023-08-21T02:56:22;8.75;;;6.30;;
40052;SDS011;25758;48.200;16.338;2023-08-21T02:58:48;9.18;;;6.25;;
40052;SDS011;25758;48.200;16.338;2023-08-21T03:01:14;9.75;;;6.15;;
40052;SDS011;25758;48.200;16.338;2023-08-21T03:03:39;6.82;;;6.22;;
40052;SDS011;25758;48.200;16.338;2023-08-21T03:06:05;6.40;;;5.63;;
40052;SDS011;25758;48.200;16.338;2023-08-21T03:08:31;6.68;;;6.05;;
40052;SDS011;25758;48.200;16.338;2023-08-21T03:10:56;7.53;;;6.80;;
40052;SDS011;25758;48.200;16.338;2023-08-21T03:13:22;7.18;;;5.90;;
40052;SDS011;25758;48.200;16.338;2023-08-21T03:15:47;8.02;;;6.55;;
40052;SDS011;25758;48.200;16.338;2023-08-21T03:18:13;7.70;;;6.00;;
40052;SDS011;25758;48.200;16.338;2023-08-21T03:20:43;6.80;;;6.00;;
40052;SDS011;25758;48.200;16.338;2023-08-21T03:23:10;9.35;;;6.28;;
40052;SDS011;25758;48.200;16.338;2023-08-21T03:25:36;7.53;;;6.28;;
40052;SDS011;25758;48.200;16.338;2023-08-21T03:28:01;7.40;;;6.63;;
40052;SDS011;25758;48.200;16.338;2023-08-21T03:30:27;6.80;;;6.13;;
40052;SDS011;25758;48.200;16.338;2023-08-21T03:32:53;6.88;;;6.18;;
40052;SDS011;25758;48.200;16.338;2023-08-21T03:35:19;12.00;;;6.43;;
40052;SDS011;25758;48.200;16.338;2023-08-21T03:37:44;8.23;;;6.18;;
40052;SDS011;25758;48.200;16.338;2023-08-21T03:40:10;9.20;;;6.38;;
40052;SDS011;25758;48.200;16.338;2023-08-21T03:42:36;11.95;;;5.82;;
40052;SDS011;25758;48.200;16.338;2023-08-21T03:45:02;6.93;;;6.18;;
40052;SDS011;25758;48.200;16.338;2023-08-21T03:47:29;8.38;;;7.07;;
40052;SDS011;25758;48.200;16.338;2023-08-21T03:49:55;6.25;;;5.65;;
40052;SDS011;25758;48.200;16.338;2023-08-21T03:52:21;7.95;;;6.18;;
40052;SDS011;25758;48.200;16.338;2023-08-21T03:54:47;7.32;;;6.30;;
40052;SDS011;25758;48.200;16.338;2023-08-21T03:57:12;9.90;;;6.13;;
40052;SDS011;25758;48.200;16.338;2023-08-21T03:59:38;8.20;;;5.88;;
40052;SDS011;25758;48.200;16.338;2023-08-21T04:02:03;10.07;;;6.57;;
40052;SDS011;25758;48.200;16.338;2023-08-21T04:04:29;12.77;;;6.40;;
40052;SDS011;25758;48.200;16.338;2023-08-21T04:06:55;7.65;;;5.90;;
40052;SDS011;25758;48.200;16.338;2023-08-21T04:09:20;10.27;;;6.65;;
40052;SDS011;25758;48.200;16.338;2023-08-21T04:11:46;6.70;;;6.00;;
40052;SDS011;25758;48.200;16.338;2023-08-21T04:14:11;8.45;;;6.57;;
40052;SDS011;25758;48.200;16.338;2023-08-21T04:16:37;10.10;;;6.10;;
40052;SDS011;25758;48.200;16.338;2023-08-21T04:19:02;10.02;;;6.47;;
40052;SDS011;25758;48.200;16.338;2023-08-21T04:21:28;8.95;;;6.30;;
40052;SDS011;25758;48.200;16.338;2023-08-21T04:23:54;9.80;;;6.97;;
40052;SDS011;25758;48.200;16.338;2023-08-21T04:26:20;12.70;;;6.70;;
40052;SDS011;25758;48.200;16.338;2023-08-21T04:28:45;12.65;;;6.22;;
40052;SDS011;25758;48.200;16.338;2023-08-21T04:31:11;10.55;;;6.65;;
40052;SDS011;25758;48.200;16.338;2023-08-21T04:33:37;9.40;;;6.60;;
40052;SDS011;25758;48.200;16.338;2023-08-21T04:36:03;8.65;;;6.20;;
40052;SDS011;25758;48.200;16.338;2023-08-21T04:38:28;7.30;;;6.50;;
40052;SDS011;25758;48.200;16.338;2023-08-21T04:40:54;8.65;;;6.28;;
40052;SDS011;25758;48.200;16.338;2023-08-21T04:43:20;8.50;;;6.53;;
40052;SDS011;25758;48.200;16.338;2023-08-21T04:45:48;11.52;;;7.18;;
40052;SDS011;25758;48.200;16.338;2023-08-21T04:48:15;14.82;;;7.57;;
40052;SDS011;25758;48.200;16.338;2023-08-21T04:50:41;14.57;;;7.25;;
40052;SDS011;25758;48.200;16.338;2023-08-21T04:53:07;9.93;;;7.45;;
40052;SDS011;25758;48.200;16.338;2023-08-21T04:55:32;10.93;;;7.00;;
40052;SDS011;25758;48.200;16.338;2023-08-21T04:57:58;9.00;;;6.35;;
40052;SDS011;25758;48.200;16.338;2023-08-21T05:00:24;8.85;;;6.85;;
40052;SDS011;25758;48.200;16.338;2023-08-21T05:02:49;12.35;;;7.22;;
40052;SDS011;25758;48.200;16.338;2023-08-21T05:05:15;9.48;;;6.47;;
40052;SDS011;25758;48.200;16.338;2023-08-21T05:07:41;12.32;;;7.63;;
40052;SDS011;25758;48.200;16.338;2023-08-21T05:10:06;7.63;;;6.47;;
40052;SDS011;25758;48.200;16.338;2023-08-21T05:12:32;8.02;;;6.28;;
40052;SDS011;25758;48.200;16.338;2023-08-21T05:14:58;10.82;;;6.57;;
40052;SDS011;25758;48.200;16.338;2023-08-21T05:17:24;11.43;;;6.45;;
40052;SDS011;25758;48.200;16.338;2023-08-21T05:19:51;10.35;;;6.55;;
40052;SDS011;25758;48.200;16.338;2023-08-21T05:22:17;8.48;;;6.50;;
40052;SDS011;25758;48.200;16.338;2023-08-21T05:24:42;10.38;;;6.85;;
40052;SDS011;25758;48.200;16.338;2023-08-21T05:27:08;13.30;;;7.10;;
40052;SDS011;25758;48.200;16.338;2023-08-21T05:29:34;11.88;;;7.65;;
40052;SDS011;25758;48.200;16.338;2023-08-21T05:31:59;8.95;;;6.80;;
40052;SDS011;25758;48.200;16.338;2023-08-21T05:34:25;7.13;;;6.43;;
40052;SDS011;25758;48.200;16.338;2023-08-21T05:36:51;8.30;;;6.35;;
40052;SDS011;25758;48.200;16.338;2023-08-21T05:39:19;9.65;;;7.40;;
40052;SDS011;25758;48.200;16.338;2023-08-21T05:41:45;13.43;;;7.60;;
40052;SDS011;25758;48.200;16.338;2023-08-21T05:44:11;9.68;;;8.02;;
40052;SDS011;25758;48.200;16.338;2023-08-21T05:46:36;13.40;;;7.53;;
40052;SDS011;25758;48.200;16.338;2023-08-21T05:49:03;9.45;;;7.35;;
40052;SDS011;25758;48.200;16.338;2023-08-21T05:51:28;11.02;;;7.30;;
40052;SDS011;25758;48.200;16.338;2023-08-21T05:53:54;15.57;;;7.50;;
40052;SDS011;25758;48.200;16.338;2023-08-21T05:56:21;9.00;;;7.65;;
40052;SDS011;25758;48.200;16.338;2023-08-21T05:58:47;11.23;;;6.90;;
40052;SDS011;25758;48.200;16.338;2023-08-21T06:01:12;12.00;;;7.13;;
40052;SDS011;25758;48.200;16.338;2023-08-21T06:03:38;10.32;;;7.75;;
40052;SDS011;25758;48.200;16.338;2023-08-21T06:06:04;9.00;;;7.90;;
40052;SDS011;25758;48.200;16.338;2023-08-21T06:08:30;8.05;;;6.93;;
40052;SDS011;25758;48.200;16.338;2023-08-21T06:10:56;15.02;;;7.50;;
40052;SDS011;25758;48.200;16.338;2023-08-21T06:13:22;10.32;;;6.60;;
40052;SDS011;25758;48.200;16.338;2023-08-21T06:15:47;13.57;;;8.00;;
40052;SDS011;25758;48.200;16.338;2023-08-21T06:18:13;10.18;;;7.45;;
40052;SDS011;25758;48.200;16.338;2023-08-21T06:20:41;9.10;;;8.07;;
40052;SDS011;25758;48.200;16.338;2023-08-21T06:23:08;13.88;;;8.23;;
40052;SDS011;25758;48.200;16.338;2023-08-21T06:25:34;10.90;;;7.38;;
40052;SDS011;25758;48.200;16.338;2023-08-21T06:28:00;13.38;;;7.85;;
40052;SDS011;25758;48.200;16.338;2023-08-21T06:30:26;11.10;;;7.60;;
40052;SDS011;25758;48.200;16.338;2023-08-21T06:32:52;10.13;;;7.40;;
40052;SDS011;25758;48.200;16.338;2023-08-21T06:35:18;12.82;;;8.25;;
40052;SDS011;25758;48.200;16.338;2023-08-21T06:37:43;8.65;;;7.03;;
40052;SDS011;25758;48.200;16.338;2023-08-21T06:40:09;15.20;;;7.30;;
40052;SDS011;25758;48.200;16.338;2023-08-21T06:42:36;16.25;;;7.63;;
40052;SDS011;25758;48.200;16.338;2023-08-21T06:45:02;14.82;;;7.45;;
40052;SDS011;25758;48.200;16.338;2023-08-21T06:47:31;10.13;;;7.50;;
40052;SDS011;25758;48.200;16.338;2023-08-21T06:49:57;12.27;;;6.97;;
40052;SDS011;25758;48.200;16.338;2023-08-21T06:52:25;13.63;;;7.28;;
40052;SDS011;25758;48.200;16.338;2023-08-21T06:54:51;14.32;;;8.70;;
40052;SDS011;25758;48.200;16.338;2023-08-21T06:57:16;12.52;;;8.50;;
40052;SDS011;25758;48.200;16.338;2023-08-21T06:59:42;12.55;;;7.82;;
40052;SDS011;25758;48.200;16.338;2023-08-21T07:02:07;18.42;;;8.13;;
40052;SDS011;25758;48.200;16.338;2023-08-21T07:04:33;11.65;;;8.27;;
40052;SDS011;25758;48.200;16.338;2023-08-21T07:06:59;17.27;;;9.82;;
40052;SDS011;25758;48.200;16.338;2023-08-21T07:09:24;22.80;;;9.32;;
40052;SDS011;25758;48.200;16.338;2023-08-21T07:11:50;13.23;;;9.00;;
40052;SDS011;25758;48.200;16.338;2023-08-21T07:14:16;20.60;;;13.38;;
40052;SDS011;25758;48.200;16.338;2023-08-21T07:16:42;21.30;;;9.38;;
40052;SDS011;25758;48.200;16.338;2023-08-21T07:19:08;31.05;;;23.13;;
40052;SDS011;25758;48.200;16.338;2023-08-21T07:21:34;22.42;;;17.65;;
40052;SDS011;25758;48.200;16.338;2023-08-21T07:24:03;16.65;;;11.75;;
40052;SDS011;25758;48.200;16.338;2023-08-21T07:26:29;18.02;;;9.02;;
40052;SDS011;25758;48.200;16.338;2023-08-21T07:28:55;15.25;;;9.68;;
40052;SDS011;25758;48.200;16.338;2023-08-21T07:31:20;16.05;;;8.35;;
40052;SDS011;25758;48.200;16.338;2023-08-21T07:33:47;13.38;;;7.72;;
40052;SDS011;25758;48.200;16.338;2023-08-21T07:36:12;9.50;;;7.82;;
40052;SDS011;25758;48.200;16.338;2023-08-21T07:38:42;10.32;;;8.40;;
40052;SDS011;25758;48.200;16.338;2023-08-21T07:41:09;13.73;;;7.20;;
40052;SDS011;25758;48.200;16.338;2023-08-21T07:43:42;10.55;;;7.00;;
40052;SDS011;25758;48.200;16.338;2023-08-21T07:46:09;11.45;;;8.85;;
40052;SDS011;25758;48.200;16.338;2023-08-21T07:48:38;11.82;;;7.32;;
40052;SDS011;25758;48.200;16.338;2023-08-21T07:51:04;16.10;;;8.13;;
40052;SDS011;25758;48.200;16.338;2023-08-21T07:53:30;14.65;;;7.43;;
40052;SDS011;25758;48.200;16.338;2023-08-21T07:55:56;15.63;;;7.95;;
40052;SDS011;25758;48.200;16.338;2023-08-21T07:58:22;11.93;;;8.10;;
40052;SDS011;25758;48.200;16.338;2023-08-21T08:00:48;13.68;;;8.10;;
40052;SDS011;25758;48.200;16.338;2023-08-21T08:03:14;13.15;;;7.97;;
40052;SDS011;25758;48.200;16.338;2023-08-21T08:05:40;12.00;;;8.40;;
40052;SDS011;25758;48.200;16.338;2023-08-21T08:08:06;13.30;;;9.43;;
40052;SDS011;25758;48.200;16.338;2023-08-21T08:10:32;13.65;;;8.25;;
40052;SDS011;25758;48.200;16.338;2023-08-21T08:12:58;15.30;;;8.05;;
40052;SDS011;25758;48.200;16.338;2023-08-21T08:15:23;15.32;;;7.75;;
40052;SDS011;25758;48.200;16.338;2023-08-21T08:17:49;13.23;;;7.95;;
40052;SDS011;25758;48.200;16.338;2023-08-21T08:20:18;12.95;;;7.45;;
40052;SDS011;25758;48.200;16.338;2023-08-21T08:22:44;10.63;;;6.80;;
40052;SDS011;25758;48.200;16.338;2023-08-21T08:25:09;13.65;;;6.75;;
40052;SDS011;25758;48.200;16.338;2023-08-21T08:27:35;15.35;;;8.95;;
40052;SDS011;25758;48.200;16.338;2023-08-21T08:30:01;12.90;;;7.00;;
40052;SDS011;25758;48.200;16.338;2023-08-21T08:32:28;15.65;;;8.13;;
40052;SDS011;25758;48.200;16.338;2023-08-21T08:34:54;15.63;;;7.65;;
40052;SDS011;25758;48.200;16.338;2023-08-21T08:37:20;11.35;;;7.63;;
40052;SDS011;25758;48.200;16.338;2023-08-21T08:39:46;15.65;;;8.25;;
40052;SDS011;25758;48.200;16.338;2023-08-21T08:42:12;12.85;;;7.97;;
40052;SDS011;25758;48.200;16.338;2023-08-21T08:44:39;9.95;;;7.13;;
40052;SDS011;25758;48.200;16.338;2023-08-21T08:47:06;14.93;;;7.15;;
40052;SDS011;25758;48.200;16.338;2023-08-21T08:49:33;10.35;;;6.40;;
40052;SDS011;25758;48.200;16.338;2023-08-21T08:51:59;14.63;;;6.95;;
40052;SDS011;25758;48.200;16.338;2023-08-21T08:54:25;14.73;;;5.63;;
40052;SDS011;25758;48.200;16.338;2023-08-21T08:56:52;12.38;;;6.32;;
40052;SDS011;25758;48.200;16.338;2023-08-21T08:59:18;8.38;;;5.25;;
40052;SDS011;25758;48.200;16.338;2023-08-21T09:01:44;13.85;;;5.70;;
40052;SDS011;25758;48.200;16.338;2023-08-21T09:04:10;7.68;;;5.40;;
40052;SDS011;25758;48.200;16.338;2023-08-21T09:06:36;15.48;;;7.60;;
40052;SDS011;25758;48.200;16.338;2023-08-21T09:09:02;18.17;;;12.48;;
40052;SDS011;25758;48.200;16.338;2023-08-21T09:11:28;8.25;;;5.22;;
40052;SDS011;25758;48.200;16.338;2023-08-21T09:13:54;7.82;;;4.82;;
40052;SDS011;25758;48.200;16.338;2023-08-21T09:16:20;10.05;;;5.22;;
40052;SDS011;25758;48.200;16.338;2023-08-21T09:18:48;10.10;;;4.88;;
40052;SDS011;25758;48.200;16.338;2023-08-21T09:21:18;7.70;;;4.80;;
40052;SDS011;25758;48.200;16.338;2023-08-21T09:23:44;11.75;;;5.55;;
40052;SDS011;25758;48.200;16.338;2023-08-21T09:26:20;9.05;;;4.43;;
40052;SDS011;25758;48.200;16.338;2023-08-21T09:28:49;9.82;;;4.38;;
40052;SDS011;25758;48.200;16.338;2023-08-21T09:31:16;9.02;;;4.50;;
40052;SDS011;25758;48.200;16.338;2023-08-21T09:33:54;11.80;;;4.80;;
40052;SDS011;25758;48.200;16.338;2023-08-21T09:36:21;9.50;;;5.32;;
40052;SDS011;25758;48.200;16.338;2023-08-21T09:38:47;9.85;;;4.53;;
40052;SDS011;25758;48.200;16.338;2023-08-21T09:41:13;6.55;;;4.45;;
40052;SDS011;25758;48.200;16.338;2023-08-21T09:43:41;8.45;;;4.30;;
40052;SDS011;25758;48.200;16.338;2023-08-21T09:46:13;12.43;;;4.82;;
40052;SDS011;25758;48.200;16.338;2023-08-21T09:48:48;5.32;;;4.68;;
40052;SDS011;25758;48.200;16.338;2023-08-21T09:51:16;10.23;;;4.45;;
40052;SDS011;25758;48.200;16.338;2023-08-21T09:53:42;7.82;;;4.70;;
40052;SDS011;25758;48.200;16.338;2023-08-21T09:56:08;5.18;;;4.25;;
40052;SDS011;25758;48.200;16.338;2023-08-21T09:58:35;9.48;;;4.75;;
40052;SDS011;25758;48.200;16.338;2023-08-21T10:01:01;7.97;;;3.92;;
40052;SDS011;25758;48.200;16.338;2023-08-21T10:03:39;5.18;;;4.25;;
40052;SDS011;25758;48.200;16.338;2023-08-21T10:06:05;5.30;;;4.05;;
40052;SDS011;25758;48.200;16.338;2023-08-21T10:08:35;6.35;;;4.10;;
40052;SDS011;25758;48.200;16.338;2023-08-21T10:11:04;9.77;;;4.75;;
40052;SDS011;25758;48.200;16.338;2023-08-21T10:13:32;4.82;;;3.85;;
40052;SDS011;25758;48.200;16.338;2023-08-21T10:15:58;5.10;;;3.88;;
40052;SDS011;25758;48.200;16.338;2023-08-21T10:18:35;7.65;;;4.65;;
40052;SDS011;25758;48.200;16.338;2023-08-21T10:21:11;5.03;;;3.67;;
40052;SDS011;25758;48.200;16.338;2023-08-21T10:23:38;7.93;;;4.00;;
40052;SDS011;25758;48.200;16.338;2023-08-21T10:26:07;5.10;;;3.92;;
40052;SDS011;25758;48.200;16.338;2023-08-21T10:34:10;9.63;;;3.60;;
40052;SDS011;25758;48.200;16.338;2023-08-21T10:39:16;10.80;;;4.35;;
40052;SDS011;25758;48.200;16.338;2023-08-21T10:49:52;7.03;;;4.22;;
40052;SDS011;25758;48.200;16.338;2023-08-21T10:52:41;7.32;;;4.03;;
40052;SDS011;25758;48.200;16.338;2023-08-21T10:55:13;17.33;;;3.83;;
40052;SDS011;25758;48.200;16.338;2023-08-21T10:57:43;6.47;;;4.03;;
40052;SDS011;25758;48.200;16.338;2023-08-21T11:00:14;5.47;;;3.90;;
40052;SDS011;25758;48.200;16.338;2023-08-21T11:02:42;7.32;;;3.33;;
40052;SDS011;25758;48.200;16.338;2023-08-21T11:05:13;6.60;;;3.75;;
40052;SDS011;25758;48.200;16.338;2023-08-21T11:07:46;4.68;;;3.85;;
40052;SDS011;25758;48.200;16.338;2023-08-21T11:10:13;4.47;;;3.70;;
40052;SDS011;25758;48.200;16.338;2023-08-21T11:12:56;8.20;;;3.40;;
40052;SDS011;25758;48.200;16.338;2023-08-21T11:15:23;5.03;;;3.63;;
40052;SDS011;25758;48.200;16.338;2023-08-21T11:17:50;7.45;;;3.55;;
40052;SDS011;25758;48.200;16.338;2023-08-21T11:20:33;3.38;;;3.08;;
40052;SDS011;25758;48.200;16.338;2023-08-21T11:23:00;6.82;;;3.47;;
40052;SDS011;25758;48.200;16.338;2023-08-21T11:25:28;3.92;;;3.30;;
40052;SDS011;25758;48.200;16.338;2023-08-21T11:27:54;6.32;;;3.00;;
40052;SDS011;25758;48.200;16.338;2023-08-21T11:30:23;6.45;;;3.28;;
40052;SDS011;25758;48.200;16.338;2023-08-21T11:33:02;10.30;;;3.90;;
40052;SDS011;25758;48.200;16.338;2023-08-21T11:35:39;5.38;;;3.42;;
40052;SDS011;25758;48.200;16.338;2023-08-21T11:38:05;4.38;;;3.97;;
40052;SDS011;25758;48.200;16.338;2023-08-21T11:40:34;6.45;;;3.50;;
40052;SDS011;25758;48.200;16.338;2023-08-21T11:43:00;3.63;;;3.15;;
40052;SDS011;25758;48.200;16.338;2023-08-21T11:45:28;4.88;;;3.58;;
40052;SDS011;25758;48.200;16.338;2023-08-21T11:47:55;7.03;;;3.40;;
40052;SDS011;25758;48.200;16.338;2023-08-21T11:50:21;8.38;;;4.07;;
40052;SDS011;25758;48.200;16.338;2023-08-21T11:52:47;6.20;;;3.90;;
40052;SDS011;25758;48.200;16.338;2023-08-21T11:55:17;6.70;;;3.88;;
40052;SDS011;25758;48.200;16.338;2023-08-21T11:57:49;9.88;;;4.00;;
40052;SDS011;25758;48.200;16.338;2023-08-21T12:02:53;7.93;;;3.28;;
40052;SDS011;25758;48.200;16.338;2023-08-21T12:05:21;7.63;;;3.08;;
40052;SDS011;25758;48.200;16.338;2023-08-21T12:07:47;5.70;;;3.60;;
40052;SDS011;25758;48.200;16.338;2023-08-21T12:10:12;5.18;;;3.92;;
40052;SDS011;25758;48.200;16.338;2023-08-21T12:12:38;6.05;;;4.22;;
40052;SDS011;25758;48.200;16.338;2023-08-21T12:15:04;5.00;;;3.33;;
40052;SDS011;25758;48.200;16.338;2023-08-21T12:17:30;3.45;;;3.00;;
40052;SDS011;25758;48.200;16.338;2023-08-21T12:19:56;8.18;;;3.35;;
40052;SDS011;25758;48.200;16.338;2023-08-21T12:22:22;8.75;;;3.63;;
40052;SDS011;25758;48.200;16.338;2023-08-21T12:24:47;9.23;;;3.10;;
40052;SDS011;25758;48.200;16.338;2023-08-21T12:27:13;4.88;;;3.42;;
40052;SDS011;25758;48.200;16.338;2023-08-21T12:29:54;5.82;;;3.38;;
40052;SDS011;25758;48.200;16.338;2023-08-21T12:32:19;6.80;;;3.38;;
40052;SDS011;25758;48.200;16.338;2023-08-21T12:34:45;3.80;;;3.40;;
40052;SDS011;25758;48.200;16.338;2023-08-21T12:37:11;6.75;;;3.58;;
40052;SDS011;25758;48.200;16.338;2023-08-21T12:39:37;5.15;;;3.60;;
40052;SDS011;25758;48.200;16.338;2023-08-21T12:42:02;5.25;;;3.33;;
40052;SDS011;25758;48.200;16.338;2023-08-21T12:44:29;8.25;;;3.20;;
40052;SDS011;25758;48.200;16.338;2023-08-21T12:47:12;6.20;;;3.25;;
40052;SDS011;25758;48.200;16.338;2023-08-21T12:49:38;11.60;;;3.50;;
40052;SDS011;25758;48.200;16.338;2023-08-21T12:52:04;10.35;;;3.67;;
40052;SDS011;25758;48.200;16.338;2023-08-21T13:31:32;7.00;;;3.15;;
40052;SDS011;25758;48.200;16.338;2023-08-21T13:33:58;5.10;;;3.08;;
40052;SDS011;25758;48.200;16.338;2023-08-21T13:56:19;6.72;;;2.88;;
40052;SDS011;25758;48.200;16.338;2023-08-21T14:01:41;4.82;;;2.92;;
40052;SDS011;25758;48.200;16.338;2023-08-21T14:04:07;3.58;;;3.08;;
40052;SDS011;25758;48.200;16.338;2023-08-21T14:06:32;3.90;;;2.72;;
40052;SDS011;25758;48.200;16.338;2023-08-21T14:08:58;4.55;;;2.60;;
40052;SDS011;25758;48.200;16.338;2023-08-21T14:11:26;4.15;;;2.30;;
40052;SDS011;25758;48.200;16.338;2023-08-21T14:17:34;3.88;;;2.63;;
40052;SDS011;25758;48.200;16.338;2023-08-21T14:32:56;5.93;;;3.08;;
40052;SDS011;25758;48.200;16.338;2023-08-21T14:38:44;3.50;;;2.10;;
40052;SDS011;25758;48.200;16.338;2023-08-21T14:41:09;3.83;;;2.17;;
40052;SDS011;25758;48.200;16.338;2023-08-21T14:43:35;3.17;;;2.08;;
40052;SDS011;25758;48.200;16.338;2023-08-21T14:46:00;9.40;;;1.63;;
40052;SDS011;25758;48.200;16.338;2023-08-21T14:48:26;5.70;;;2.38;;
40052;SDS011;25758;48.200;16.338;2023-08-21T14:50:52;5.22;;;1.60;;
40052;SDS011;25758;48.200;16.338;2023-08-21T14:53:17;5.43;;;2.25;;
40052;SDS011;25758;48.200;16.338;2023-08-21T14:55:43;5.93;;;2.03;;
40052;SDS011;25758;48.200;16.338;2023-08-21T14:58:09;6.43;;;1.80;;
40052;SDS011;25758;48.200;16.338;2023-08-21T15:00:35;3.13;;;2.00;;
40052;SDS011;25758;48.200;16.338;2023-08-21T15:03:01;4.15;;;1.83;;
40052;SDS011;25758;48.200;16.338;2023-08-21T15:05:27;8.13;;;1.90;;
40052;SDS011;25758;48.200;16.338;2023-08-21T15:07:53;3.78;;;1.55;;
40052;SDS011;25758;48.200;16.338;2023-08-21T15:10:20;8.10;;;1.80;;
40052;SDS011;25758;48.200;16.338;2023-08-21T15:12:46;6.15;;;2.05;;
40052;SDS011;25758;48.200;16.338;2023-08-21T15:15:11;6.50;;;1.58;;
40052;SDS011;25758;48.200;16.338;2023-08-21T15:17:37;6.15;;;1.52;;
40052;SDS011;25758;48.200;16.338;2023-08-21T15:20:03;5.47;;;1.65;;
40052;SDS011;25758;48.200;16.338;2023-08-21T15:22:32;3.90;;;1.77;;
40052;SDS011;25758;48.200;16.338;2023-08-21T15:24:58;3.08;;;1.85;;
40052;SDS011;25758;48.200;16.338;2023-08-21T15:27:24;4.55;;;2.25;;
40052;SDS011;25758;48.200;16.338;2023-08-21T15:29:50;3.28;;;2.15;;
40052;SDS011;25758;48.200;16.338;2023-08-21T15:32:15;3.42;;;1.92;;
40052;SDS011;25758;48.200;16.338;2023-08-21T15:34:41;2.67;;;1.65;;
40052;SDS011;25758;48.200;16.338;2023-08-21T15:37:07;7.72;;;2.58;;
40052;SDS011;25758;48.200;16.338;2023-08-21T15:39:33;5.10;;;3.08;;
40052;SDS011;25758;48.200;16.338;2023-08-21T15:41:59;7.07;;;2.00;;
40052;SDS011;25758;48.200;16.338;2023-08-21T15:44:25;3.58;;;1.95;;
40052;SDS011;25758;48.200;16.338;2023-08-21T15:46:50;9.02;;;1.30;;
40052;SDS011;25758;48.200;16.338;2023-08-21T15:49:16;2.83;;;1.60;;
40052;SDS011;25758;48.200;16.338;2023-08-21T15:51:45;4.13;;;1.70;;
40052;SDS011;25758;48.200;16.338;2023-08-21T15:54:12;3.45;;;2.00;;
40052;SDS011;25758;48.200;16.338;2023-08-21T15:56:37;8.98;;;1.90;;
40052;SDS011;25758;48.200;16.338;2023-08-21T15:59:03;5.45;;;2.55;;
40052;SDS011;25758;48.200;16.338;2023-08-21T16:01:28;3.53;;;1.83;;
40052;SDS011;25758;48.200;16.338;2023-08-21T16:03:54;4.32;;;1.83;;
40052;SDS011;25758;48.200;16.338;2023-08-21T16:06:20;5.30;;;2.30;;
40052;SDS011;25758;48.200;16.338;2023-08-21T16:08:45;7.57;;;2.50;;
40052;SDS011;25758;48.200;16.338;2023-08-21T16:11:11;6.72;;;2.95;;
40052;SDS011;25758;48.200;16.338;2023-08-21T16:13:37;6.95;;;2.83;;